Time,TemperatureF,DewpointF,PressureIn,WindDirection,WindDirectionDegrees,WindSpeedMPH,WindSpeedGustMPH,Humidity,HourlyPrecipIn,Conditions,Clouds,dailyrainin,SoftwareType,DateUTC
2013-05-09 00:00:00,54.5,53.9,30.00,NE,45,0.0,3.0,98,0.00,,,0.00,WUHU216DAVISVP2,2013-05-09 04:00:00,
2013-05-09 00:01:00,54.4,53.8,30.00,NE,37,0.0,0.0,98,0.00,,,0.00,WUHU216DAVISVP2,2013-05-09 04:01:00,
2013-05-09 00:06:00,54.2,53.6,30.00,NE,37,0.0,0.0,98,0.00,,,0.00,WUHU216DAVISVP2,2013-05-09 04:06:00,
2013-05-09 00:11:00,53.9,53.3,30.00,NE,37,0.0,0.0,98,0.00,,,0.00,WUHU216DAVISVP2,2013-05-09 04:11:00,
2013-05-09 00:16:00,53.7,53.1,30.00,NE,37,0.0,0.0,98,0.00,,,0.00,WUHU216DAVISVP2,2013-05-09 04:16:00,
2013-05-09 00:21:00,53.5,52.9,30.00,NE,37,0.0,0.0,98,0.00,,,0.00,WUHU216DAVISVP2,2013-05-09 04:21:00,
2013-05-09 00:26:00,53.4,52.8,30.00,NE,37,0.0,0.0,98,0.00,,,0.00,WUHU216DAVISVP2,2013-05-09 04:26:00,
2013-05-09 00:30:00,53.3,52.8,30.00,North,0,0.0,0.0,98,0.00,,,0.00,WUHU216DAVISVP2,2013-05-09 04:30:00,
2013-05-09 00:31:00,53.2,52.6,30.00,NE,37,0.0,0.0,98,0.00,,,0.00,WUHU216DAVISVP2,2013-05-09 04:31:00,
2013-05-09 00:36:00,53.0,52.4,30.00,NE,37,0.0,0.0,98,0.00,,,0.00,WUHU216DAVISVP2,2013-05-09 04:36:00,
2013-05-09 00:41:00,52.9,52.4,30.00,NE,37,1.0,1.0,98,0.00,,,0.00,WUHU216DAVISVP2,2013-05-09 04:41:00,
2013-05-09 00:46:00,52.8,52.3,30.00,NE,37,0.0,1.0,98,0.00,,,0.00,WUHU216DAVISVP2,2013-05-09 04:46:00,
2013-05-09 00:51:00,52.6,52.0,30.00,NE,37,0.0,1.0,98,0.00,,,0.00,WUHU216DAVISVP2,2013-05-09 04:51:00,
2013-05-09 00:56:00,52.5,51.9,30.00,NE,37,0.0,1.0,98,0.00,,,0.00,WUHU216DAVISVP2,2013-05-09 04:56:00,
2013-05-09 01:00:00,52.4,51.9,30.00,NE,45,0.0,1.0,98,0.00,,,0.00,WUHU216DAVISVP2,2013-05-09 05:00:00,
2013-05-09 01:01:00,52.3,51.7,30.00,SW,236,1.0,2.0,98,0.00,,,0.00,WUHU216DAVISVP2,2013-05-09 05:01:00,
2013-05-09 01:06:00,52.2,51.6,30.00,WSW,240,0.0,2.0,98,0.00,,,0.00,WUHU216DAVISVP2,2013-05-09 05:06:00,
2013-05-09 01:11:00,52.1,51.5,30.00,WSW,241,0.0,2.0,98,0.00,,,0.00,WUHU216DAVISVP2,2013-05-09 05:11:00,
2013-05-09 01:16:00,51.9,51.3,30.00,West,273,0.0,2.0,98,0.00,,,0.00,WUHU216DAVISVP2,2013-05-09 05:16:00,
2013-05-09 01:21:00,51.8,51.3,30.00,WSW,240,1.0,2.0,98,0.00,,,0.00,WUHU216DAVISVP2,2013-05-09 05:21:00,
2013-05-09 01:26:00,51.6,51.1,30.00,SW,224,0.0,2.0,98,0.00,,,0.00,WUHU216DAVISVP2,2013-05-09 05:26:00,
2013-05-09 01:30:00,51.6,51.1,30.00,WSW,248,0.0,2.0,98,0.00,,,0.00,WUHU216DAVISVP2,2013-05-09 05:30:00,
2013-05-09 01:31:00,51.6,51.0,30.00,SW,224,0.0,2.0,98,0.00,,,0.00,WUHU216DAVISVP2,2013-05-09 05:31:00,
2013-05-09 01:36:00,51.4,50.8,30.00,SW,228,0.0,2.0,98,0.00,,,0.00,WUHU216DAVISVP2,2013-05-09 05:36:00,
2013-05-09 01:41:00,51.2,50.6,30.00,SW,236,0.0,2.0,98,0.00,,,0.00,WUHU216DAVISVP2,2013-05-09 05:41:00,
2013-05-09 01:46:00,51.1,50.5,29.99,SW,236,0.0,2.0,98,0.00,,,0.00,WUHU216DAVISVP2,2013-05-09 05:46:00,
2013-05-09 01:51:00,50.9,50.3,29.99,WSW,245,0.0,2.0,98,0.00,,,0.00,WUHU216DAVISVP2,2013-05-09 05:51:00,
2013-05-09 01:56:00,50.8,50.3,29.99,WSW,240,0.0,2.0,98,0.00,,,0.00,WUHU216DAVISVP2,2013-05-09 05:56:00,
2013-05-09 02:00:00,50.7,50.2,29.99,WSW,248,0.0,2.0,98,0.00,,,0.00,WUHU216DAVISVP2,2013-05-09 06:00:00,
2013-05-09 02:01:00,50.7,50.1,29.99,WSW,240,0.0,1.0,98,0.00,,,0.00,WUHU216DAVISVP2,2013-05-09 06:01:00,
2013-05-09 02:06:00,50.5,49.9,29.99,WSW,240,1.0,1.0,98,0.00,,,0.00,WUHU216DAVISVP2,2013-05-09 06:06:00,
2013-05-09 02:11:00,50.6,50.0,29.99,WSW,239,0.0,1.0,98,0.00,,,0.00,WUHU216DAVISVP2,2013-05-09 06:11:00,
2013-05-09 02:16:00,50.5,49.9,29.99,WSW,238,0.0,1.0,98,0.00,,,0.00,WUHU216DAVISVP2,2013-05-09 06:16:00,
2013-05-09 02:21:00,50.4,49.8,29.99,WSW,239,0.0,1.0,98,0.00,,,0.00,WUHU216DAVISVP2,2013-05-09 06:21:00,
2013-05-09 02:26:00,50.4,49.9,29.99,WSW,239,0.0,1.0,98,0.00,,,0.00,WUHU216DAVISVP2,2013-05-09 06:26:00,
2013-05-09 02:30:00,50.6,50.1,29.99,WSW,248,0.0,1.0,98,0.00,,,0.00,WUHU216DAVISVP2,2013-05-09 06:30:00,
2013-05-09 02:31:00,50.9,50.3,29.99,WSW,248,0.0,2.0,98,0.00,,,0.00,WUHU216DAVISVP2,2013-05-09 06:31:00,
2013-05-09 02:36:00,50.8,50.2,29.99,West,271,0.0,2.0,98,0.00,,,0.00,WUHU216DAVISVP2,2013-05-09 06:36:00,
2013-05-09 02:41:00,50.9,50.6,29.99,WSW,250,1.0,2.0,99,0.00,,,0.00,WUHU216DAVISVP2,2013-05-09 06:41:00,
2013-05-09 02:46:00,50.9,50.6,29.99,WSW,252,0.0,2.0,99,0.00,,,0.00,WUHU216DAVISVP2,2013-05-09 06:46:00,
2013-05-09 02:51:00,50.9,50.6,29.98,WSW,252,0.0,2.0,99,0.00,,,0.00,WUHU216DAVISVP2,2013-05-09 06:51:00,
2013-05-09 02:56:00,51.0,50.7,29.98,WSW,252,0.0,2.0,99,0.00,,,0.00,WUHU216DAVISVP2,2013-05-09 06:56:00,
2013-05-09 03:00:00,51.1,50.8,29.98,WSW,248,0.0,2.0,99,0.00,,,0.00,WUHU216DAVISVP2,2013-05-09 07:00:00,
2013-05-09 03:01:00,51.1,50.8,29.98,WSW,252,1.0,1.0,99,0.00,,,0.00,WUHU216DAVISVP2,2013-05-09 07:01:00,
2013-05-09 03:06:00,51.2,50.9,29.98,SW,226,0.0,1.0,99,0.00,,,0.00,WUHU216DAVISVP2,2013-05-09 07:06:00,
2013-05-09 03:11:00,51.3,51.0,29.98,SW,228,0.0,1.0,99,0.00,,,0.00,WUHU216DAVISVP2,2013-05-09 07:11:00,
2013-05-09 03:16:00,51.1,50.8,29.99,SW,225,0.0,1.0,99,0.00,,,0.00,WUHU216DAVISVP2,2013-05-09 07:16:00,
2013-05-09 03:21:00,51.0,50.7,29.99,SSW,200,0.0,1.0,99,0.00,,,0.00,WUHU216DAVISVP2,2013-05-09 07:21:00,
2013-05-09 03:26:00,50.7,50.4,29.99,SSW,200,0.0,1.0,99,0.00,,,0.00,WUHU216DAVISVP2,2013-05-09 07:26:00,
2013-05-09 03:30:00,50.5,50.2,29.99,SW,225,0.0,1.0,99,0.00,,,0.00,WUHU216DAVISVP2,2013-05-09 07:30:00,
2013-05-09 03:31:00,50.4,50.1,29.99,SSW,200,0.0,1.0,99,0.00,,,0.00,WUHU216DAVISVP2,2013-05-09 07:31:00,
2013-05-09 03:36:00,50.4,50.1,29.99,SW,222,0.0,1.0,99,0.00,,,0.00,WUHU216DAVISVP2,2013-05-09 07:36:00,
2013-05-09 03:41:00,50.3,50.0,29.99,SW,222,0.0,1.0,99,0.00,,,0.00,WUHU216DAVISVP2,2013-05-09 07:41:00,
2013-05-09 03:46:00,50.5,50.2,29.98,SW,222,0.0,1.0,99,0.00,,,0.00,WUHU216DAVISVP2,2013-05-09 07:46:00,
2013-05-09 03:51:00,50.5,50.2,29.98,SW,222,0.0,1.0,99,0.00,,,0.00,WUHU216DAVISVP2,2013-05-09 07:51:00,
2013-05-09 03:56:00,50.3,50.0,29.98,SW,222,0.0,0.0,99,0.00,,,0.00,WUHU216DAVISVP2,2013-05-09 07:56:00,
2013-05-09 04:00:00,50.1,49.8,29.98,SW,225,0.0,1.0,99,0.00,,,0.00,WUHU216DAVISVP2,2013-05-09 08:00:00,
2013-05-09 04:01:00,50.0,49.7,29.98,SW,222,0.0,0.0,99,0.00,,,0.00,WUHU216DAVISVP2,2013-05-09 08:01:00,
2013-05-09 04:06:00,49.8,49.5,29.98,SW,222,0.0,0.0,99,0.00,,,0.00,WUHU216DAVISVP2,2013-05-09 08:06:00,
2013-05-09 04:11:00,49.8,49.5,29.99,SW,222,0.0,0.0,99,0.00,,,0.00,WUHU216DAVISVP2,2013-05-09 08:11:00,
2013-05-09 04:16:00,49.9,49.6,29.99,SW,222,0.0,0.0,99,0.00,,,0.00,WUHU216DAVISVP2,2013-05-09 08:16:00,
2013-05-09 04:21:00,49.7,49.4,29.98,SW,222,0.0,0.0,99,0.00,,,0.00,WUHU216DAVISVP2,2013-05-09 08:21:00,
2013-05-09 04:26:00,49.7,49.4,29.98,SW,222,0.0,0.0,99,0.00,,,0.00,WUHU216DAVISVP2,2013-05-09 08:26:00,
2013-05-09 04:30:00,49.7,49.4,29.99,North,0,0.0,0.0,99,0.00,,,0.00,WUHU216DAVISVP2,2013-05-09 08:30:00,
2013-05-09 04:31:00,49.6,49.3,29.98,SW,222,0.0,0.0,99,0.00,,,0.00,WUHU216DAVISVP2,2013-05-09 08:31:00,
2013-05-09 04:36:00,49.3,49.0,29.99,SW,218,0.0,1.0,99,0.00,,,0.00,WUHU216DAVISVP2,2013-05-09 08:36:00,
2013-05-09 04:40:00,49.1,48.8,29.99,SSE,148,0.0,1.0,99,0.00,,,0.00,WUHU216DAVISVP2,2013-05-09 08:40:00,
2013-05-09 04:45:00,49.1,48.8,29.98,SSE,148,0.0,1.0,99,0.00,,,0.00,WUHU216DAVISVP2,2013-05-09 08:45:00,
2013-05-09 04:50:00,48.8,48.5,29.98,SSE,148,0.0,1.0,99,0.00,,,0.00,WUHU216DAVISVP2,2013-05-09 08:50:00,
2013-05-09 04:55:00,48.4,48.1,29.99,SSE,148,0.0,1.0,99,0.00,,,0.00,WUHU216DAVISVP2,2013-05-09 08:55:00,
2013-05-09 05:00:00,48.3,48.0,29.99,SSE,148,0.0,0.0,99,0.00,,,0.00,WUHU216DAVISVP2,2013-05-09 09:00:00,
2013-05-09 05:05:00,48.0,47.7,29.99,SW,224,0.0,0.0,99,0.00,,,0.00,WUHU216DAVISVP2,2013-05-09 09:05:00,
2013-05-09 05:10:00,47.8,47.5,29.99,SW,225,0.0,0.0,99,0.00,,,0.00,WUHU216DAVISVP2,2013-05-09 09:10:00,
2013-05-09 05:15:00,47.6,47.3,29.99,SW,225,0.0,0.0,99,0.00,,,0.00,WUHU216DAVISVP2,2013-05-09 09:15:00,
2013-05-09 05:20:00,47.5,47.2,29.99,SW,225,0.0,0.0,99,0.00,,,0.00,WUHU216DAVISVP2,2013-05-09 09:20:00,
2013-05-09 05:25:00,47.4,47.1,29.99,SW,225,0.0,0.0,99,0.00,,,0.00,WUHU216DAVISVP2,2013-05-09 09:25:00,
2013-05-09 05:30:00,47.4,47.1,29.99,SW,225,0.0,0.0,99,0.00,,,0.00,WUHU216DAVISVP2,2013-05-09 09:30:00,
2013-05-09 05:35:00,47.5,47.2,29.99,SSE,167,0.0,0.0,99,0.00,,,0.00,WUHU216DAVISVP2,2013-05-09 09:35:00,
2013-05-09 05:40:00,47.2,46.9,29.99,SSE,166,0.0,1.0,99,0.00,,,0.00,WUHU216DAVISVP2,2013-05-09 09:40:00,
2013-05-09 05:45:00,47.1,46.8,29.99,SSE,167,0.0,1.0,99,0.00,,,0.00,WUHU216DAVISVP2,2013-05-09 09:45:00,
2013-05-09 05:50:00,46.9,46.6,30.00,SSE,166,0.0,1.0,99,0.00,,,0.00,WUHU216DAVISVP2,2013-05-09 09:50:00,
2013-05-09 05:55:00,46.8,46.5,30.00,SSE,167,0.0,1.0,99,0.00,,,0.00,WUHU216DAVISVP2,2013-05-09 09:55:00,
2013-05-09 06:00:00,47.0,46.7,30.00,SSE,167,0.0,1.0,99,0.00,,,0.00,WUHU216DAVISVP2,2013-05-09 10:00:00,
2013-05-09 06:05:00,47.3,47.0,30.00,SSE,166,0.0,1.0,99,0.00,,,0.00,WUHU216DAVISVP2,2013-05-09 10:05:00,
2013-05-09 06:10:00,47.2,46.9,30.00,SSE,166,0.0,1.0,99,0.00,,,0.00,WUHU216DAVISVP2,2013-05-09 10:10:00,
2013-05-09 06:15:00,46.9,46.6,30.00,SSE,167,0.0,1.0,99,0.00,,,0.00,WUHU216DAVISVP2,2013-05-09 10:15:00,
2013-05-09 06:20:00,46.6,46.3,30.01,SSE,166,0.0,0.0,99,0.00,,,0.00,WUHU216DAVISVP2,2013-05-09 10:20:00,
2013-05-09 06:25:00,46.5,46.2,30.01,SSE,166,0.0,0.0,99,0.00,,,0.00,WUHU216DAVISVP2,2013-05-09 10:25:00,
2013-05-09 06:30:00,46.5,46.2,30.01,SSE,166,0.0,0.0,99,0.00,,,0.00,WUHU216DAVISVP2,2013-05-09 10:30:00,
2013-05-09 06:35:00,46.8,46.5,30.02,SSE,167,0.0,0.0,99,0.00,,,0.00,WUHU216DAVISVP2,2013-05-09 10:35:00,
2013-05-09 06:40:00,47.1,46.8,30.02,SSE,166,0.0,0.0,99,0.00,,,0.00,WUHU216DAVISVP2,2013-05-09 10:40:00,
2013-05-09 06:45:00,47.7,47.4,30.02,SSE,166,0.0,0.0,99,0.00,,,0.00,WUHU216DAVISVP2,2013-05-09 10:45:00,
2013-05-09 06:50:00,48.4,48.1,30.03,SSE,166,0.0,0.0,99,0.00,,,0.00,WUHU216DAVISVP2,2013-05-09 10:50:00,
2013-05-09 06:55:00,48.4,47.8,30.03,SSE,166,0.0,0.0,98,0.00,,,0.00,WUHU216DAVISVP2,2013-05-09 10:55:00,
2013-05-09 07:00:00,48.4,47.8,30.03,SSE,166,0.0,0.0,98,0.01,,,0.01,WUHU216DAVISVP2,2013-05-09 11:00:00,
2013-05-09 07:05:00,48.8,48.2,30.03,SSE,166,0.0,0.0,98,0.01,,,0.01,WUHU216DAVISVP2,2013-05-09 11:05:00,
2013-05-09 07:10:00,50.1,49.5,30.03,SSE,166,0.0,0.0,98,0.01,,,0.01,WUHU216DAVISVP2,2013-05-09 11:10:00,
2013-05-09 07:15:00,51.3,51.0,30.03,SSE,167,0.0,0.0,99,0.01,,,0.01,WUHU216DAVISVP2,2013-05-09 11:15:00,
2013-05-09 07:20:00,51.6,51.1,30.04,SSE,166,0.0,0.0,98,0.01,,,0.01,WUHU216DAVISVP2,2013-05-09 11:20:00,
2013-05-09 07:25:00,50.9,50.0,30.04,SSE,166,0.0,1.0,97,0.01,,,0.01,WUHU216DAVISVP2,2013-05-09 11:25:00,
2013-05-09 07:30:00,50.4,49.6,30.04,SSE,166,0.0,1.0,97,0.01,,,0.01,WUHU216DAVISVP2,2013-05-09 11:30:00,
2013-05-09 07:35:00,50.4,49.6,30.04,SW,229,0.0,1.0,97,0.01,,,0.01,WUHU216DAVISVP2,2013-05-09 11:35:00,
2013-05-09 07:40:00,50.6,49.8,30.05,SW,232,1.0,1.0,97,0.01,,,0.01,WUHU216DAVISVP2,2013-05-09 11:40:00,
2013-05-09 07:45:00,50.9,50.4,30.05,SW,235,1.0,1.0,98,0.01,,,0.01,WUHU216DAVISVP2,2013-05-09 11:45:00,
2013-05-09 07:50:00,51.3,50.8,30.05,SW,232,1.0,2.0,98,0.01,,,0.01,WUHU216DAVISVP2,2013-05-09 11:50:00,
2013-05-09 07:55:00,51.9,51.4,30.05,WSW,243,1.0,2.0,98,0.01,,,0.01,WUHU216DAVISVP2,2013-05-09 11:55:00,
2013-05-09 08:00:00,52.5,52.0,30.05,WSW,238,0.0,2.0,98,0.00,,,0.01,WUHU216DAVISVP2,2013-05-09 12:00:00,
2013-05-09 08:05:00,52.9,52.4,30.05,SW,236,0.0,2.0,98,0.00,,,0.01,WUHU216DAVISVP2,2013-05-09 12:05:00,
2013-05-09 08:10:00,53.2,52.7,30.05,WSW,243,1.0,2.0,98,0.00,,,0.01,WUHU216DAVISVP2,2013-05-09 12:10:00,
2013-05-09 08:15:00,53.5,52.9,30.05,WSW,253,1.0,2.0,98,0.00,,,0.01,WUHU216DAVISVP2,2013-05-09 12:15:00,
2013-05-09 08:20:00,53.8,53.2,30.05,WSW,250,1.0,3.0,98,0.00,,,0.01,WUHU216DAVISVP2,2013-05-09 12:20:00,
2013-05-09 08:25:00,54.0,53.2,30.05,WSW,240,1.0,4.0,97,0.00,,,0.01,WUHU216DAVISVP2,2013-05-09 12:25:00,
2013-05-09 08:30:00,54.5,53.9,30.05,WSW,238,0.0,4.0,98,0.00,,,0.01,WUHU216DAVISVP2,2013-05-09 12:30:00,
2013-05-09 08:35:00,55.2,54.6,30.05,WSW,256,1.0,4.0,98,0.00,,,0.01,WUHU216DAVISVP2,2013-05-09 12:35:00,
2013-05-09 08:40:00,55.7,55.1,30.05,West,259,1.0,3.0,98,0.00,,,0.01,WUHU216DAVISVP2,2013-05-09 12:40:00,
2013-05-09 08:45:00,56.4,55.8,30.05,West,266,1.0,3.0,98,0.00,,,0.01,WUHU216DAVISVP2,2013-05-09 12:45:00,
2013-05-09 08:50:00,57.1,56.5,30.05,SW,232,1.0,1.0,98,0.00,,,0.01,WUHU216DAVISVP2,2013-05-09 12:50:00,
2013-05-09 08:55:00,57.5,56.6,30.05,WSW,243,1.0,3.0,97,0.00,,,0.01,WUHU216DAVISVP2,2013-05-09 12:55:00,
2013-05-09 09:00:00,58.2,57.3,30.05,SW,216,1.0,3.0,97,0.00,,,0.01,WUHU216DAVISVP2,2013-05-09 13:00:00,
2013-05-09 09:05:00,58.9,57.7,30.05,WSW,246,0.0,4.0,96,0.00,,,0.01,WUHU216DAVISVP2,2013-05-09 13:05:00,
2013-05-09 09:10:00,59.7,58.5,30.05,WSW,239,2.0,4.0,96,0.00,,,0.01,WUHU216DAVISVP2,2013-05-09 13:10:00,
2013-05-09 09:15:00,60.4,58.3,30.05,West,274,2.0,4.0,93,0.00,,,0.01,WUHU216DAVISVP2,2013-05-09 13:15:00,
2013-05-09 09:20:00,61.1,58.7,30.05,West,263,0.0,4.0,92,0.00,,,0.01,WUHU216DAVISVP2,2013-05-09 13:20:00,
2013-05-09 09:25:00,62.0,59.6,30.06,West,264,1.0,3.0,92,0.00,,,0.01,WUHU216DAVISVP2,2013-05-09 13:25:00,
2013-05-09 09:30:00,62.8,58.9,30.06,WSW,255,3.0,9.0,87,0.00,,,0.01,WUHU216DAVISVP2,2013-05-09 13:30:00,
2013-05-09 09:35:00,63.4,59.1,30.06,WSW,251,3.0,9.0,86,0.00,,,0.01,WUHU216DAVISVP2,2013-05-09 13:35:00,
2013-05-09 09:40:00,64.0,59.4,30.06,West,278,3.0,8.0,85,0.00,,,0.01,WUHU216DAVISVP2,2013-05-09 13:40:00,
2013-05-09 09:45:00,64.1,58.5,30.06,West,264,4.0,9.0,82,0.00,,,0.01,WUHU216DAVISVP2,2013-05-09 13:45:00,
2013-05-09 09:50:00,64.5,58.9,30.06,West,270,5.0,9.0,82,0.00,,,0.01,WUHU216DAVISVP2,2013-05-09 13:50:00,
2013-05-09 09:55:00,64.8,58.9,30.06,WSW,248,5.0,9.0,81,0.00,,,0.01,WUHU216DAVISVP2,2013-05-09 13:55:00,
2013-05-09 10:00:00,65.1,59.2,30.06,West,262,3.0,9.0,81,0.00,,,0.01,WUHU216DAVISVP2,2013-05-09 14:00:00,
2013-05-09 10:05:00,65.7,59.1,30.06,WSW,255,2.0,9.0,79,0.00,,,0.01,WUHU216DAVISVP2,2013-05-09 14:05:00,
2013-05-09 10:10:00,66.1,59.1,30.06,SW,228,5.0,9.0,78,0.00,,,0.01,WUHU216DAVISVP2,2013-05-09 14:10:00,
2013-05-09 10:15:00,66.6,60.0,30.06,SW,236,0.0,9.0,79,0.00,,,0.01,WUHU216DAVISVP2,2013-05-09 14:15:00,
2013-05-09 10:20:00,67.4,60.4,30.06,WSW,249,5.0,8.0,78,0.00,,,0.01,WUHU216DAVISVP2,2013-05-09 14:20:00,
2013-05-09 10:25:00,67.5,59.1,30.06,WNW,284,5.0,8.0,74,0.00,,,0.01,WUHU216DAVISVP2,2013-05-09 14:25:00,
2013-05-09 10:30:00,67.6,58.0,30.06,WNW,287,3.0,8.0,71,0.00,,,0.01,WUHU216DAVISVP2,2013-05-09 14:30:00,
2013-05-09 10:35:00,67.8,57.8,30.06,NW,315,2.0,7.0,70,0.00,,,0.01,WUHU216DAVISVP2,2013-05-09 14:35:00,
2013-05-09 10:40:00,68.2,59.4,30.06,WSW,255,2.0,6.0,73,0.00,,,0.01,WUHU216DAVISVP2,2013-05-09 14:40:00,
2013-05-09 10:45:00,68.6,59.0,30.05,WSW,245,4.0,6.0,71,0.00,,,0.01,WUHU216DAVISVP2,2013-05-09 14:45:00,
2013-05-09 10:50:00,68.7,58.3,30.05,West,270,2.0,9.0,69,0.00,,,0.01,WUHU216DAVISVP2,2013-05-09 14:50:00,
2013-05-09 10:55:00,68.9,58.1,30.05,WSW,251,5.0,9.0,68,0.00,,,0.01,WUHU216DAVISVP2,2013-05-09 14:55:00,
2013-05-09 11:00:00,68.8,58.0,30.05,WSW,249,6.0,8.0,68,0.00,,,0.01,WUHU216DAVISVP2,2013-05-09 15:00:00,
2013-05-09 11:05:00,69.1,59.1,30.05,WSW,248,2.0,8.0,70,0.00,,,0.01,WUHU216DAVISVP2,2013-05-09 15:05:00,
2013-05-09 11:10:00,69.7,58.4,30.05,SW,229,6.0,9.0,67,0.00,,,0.01,WUHU216DAVISVP2,2013-05-09 15:10:00,
2013-05-09 11:15:00,69.9,59.4,30.05,WNW,285,3.0,12.0,69,0.00,,,0.01,WUHU216DAVISVP2,2013-05-09 15:15:00,
2013-05-09 11:20:00,70.1,58.4,30.05,West,259,4.0,12.0,66,0.00,,,0.01,WUHU216DAVISVP2,2013-05-09 15:20:00,
2013-05-09 11:25:00,70.3,59.0,30.05,WNW,302,4.0,11.0,67,0.00,,,0.01,WUHU216DAVISVP2,2013-05-09 15:25:00,
2013-05-09 11:30:00,70.7,57.9,30.05,NNE,20,2.0,11.0,64,0.00,,,0.01,WUHU216DAVISVP2,2013-05-09 15:30:00,
2013-05-09 11:35:00,71.0,59.1,30.05,WSW,255,7.0,10.0,66,0.00,,,0.01,WUHU216DAVISVP2,2013-05-09 15:35:00,
2013-05-09 11:40:00,71.0,58.6,30.05,WSW,255,3.0,10.0,65,0.00,,,0.01,WUHU216DAVISVP2,2013-05-09 15:40:00,
2013-05-09 11:45:00,71.3,58.1,30.05,WSW,257,6.0,10.0,63,0.00,,,0.01,WUHU216DAVISVP2,2013-05-09 15:45:00,
2013-05-09 11:50:00,71.2,57.5,30.05,WNW,284,3.0,9.0,62,0.00,,,0.01,WUHU216DAVISVP2,2013-05-09 15:50:00,
2013-05-09 11:55:00,71.5,58.4,30.05,WNW,284,4.0,9.0,63,0.00,,,0.01,WUHU216DAVISVP2,2013-05-09 15:55:00,
2013-05-09 12:00:00,71.8,59.2,30.05,West,259,6.0,9.0,64,0.00,,,0.01,WUHU216DAVISVP2,2013-05-09 16:00:00,
2013-05-09 12:05:00,71.8,58.3,30.05,West,274,4.0,10.0,62,0.00,,,0.01,WUHU216DAVISVP2,2013-05-09 16:05:00,
2013-05-09 12:10:00,72.2,59.1,30.05,West,262,3.0,10.0,63,0.00,,,0.01,WUHU216DAVISVP2,2013-05-09 16:10:00,
2013-05-09 12:15:00,72.9,60.7,30.05,NE,43,5.0,9.0,65,0.00,,,0.01,WUHU216DAVISVP2,2013-05-09 16:15:00,
2013-05-09 12:20:00,73.5,60.3,30.05,SW,232,6.0,9.0,63,0.00,,,0.01,WUHU216DAVISVP2,2013-05-09 16:20:00,
2013-05-09 12:25:00,73.6,59.1,30.05,West,278,5.0,9.0,60,0.00,,,0.01,WUHU216DAVISVP2,2013-05-09 16:25:00,
2013-05-09 12:30:00,74.0,59.9,30.05,WSW,252,1.0,8.0,61,0.00,,,0.01,WUHU216DAVISVP2,2013-05-09 16:30:00,
2013-05-09 12:35:00,74.1,58.6,30.04,WNW,295,5.0,12.0,58,0.00,,,0.01,WUHU216DAVISVP2,2013-05-09 16:35:00,
2013-05-09 12:40:00,74.0,58.0,30.04,NNW,338,2.0,12.0,57,0.00,,,0.01,WUHU216DAVISVP2,2013-05-09 16:40:00,
2013-05-09 12:45:00,74.2,57.7,30.04,West,281,3.0,12.0,56,0.00,,,0.01,WUHU216DAVISVP2,2013-05-09 16:45:00,
2013-05-09 12:50:00,74.4,57.3,30.04,WNW,289,4.0,12.0,55,0.00,,,0.01,WUHU216DAVISVP2,2013-05-09 16:50:00,
2013-05-09 12:55:00,74.6,57.5,30.04,NNE,18,2.0,10.0,55,0.00,,,0.01,WUHU216DAVISVP2,2013-05-09 16:55:00,
2013-05-09 13:00:00,74.9,57.3,30.04,West,275,3.0,8.0,54,0.00,,,0.01,WUHU216DAVISVP2,2013-05-09 17:00:00,
2013-05-09 13:05:00,75.3,54.9,30.04,WNW,290,3.0,11.0,49,0.00,,,0.01,WUHU216DAVISVP2,2013-05-09 17:05:00,
2013-05-09 13:10:00,75.4,55.0,30.04,West,259,3.0,11.0,49,0.00,,,0.01,WUHU216DAVISVP2,2013-05-09 17:10:00,
2013-05-09 13:15:00,75.5,55.1,30.04,NW,304,3.0,11.0,49,0.00,,,0.01,WUHU216DAVISVP2,2013-05-09 17:15:00,
2013-05-09 13:20:00,75.2,58.1,30.04,West,265,2.0,11.0,55,0.00,,,0.01,WUHU216DAVISVP2,2013-05-09 17:20:00,
2013-05-09 13:25:00,75.7,59.6,30.04,WNW,302,3.0,11.0,57,0.00,,,0.01,WUHU216DAVISVP2,2013-05-09 17:25:00,
2013-05-09 13:30:00,75.7,58.6,30.04,WNW,294,2.0,10.0,55,0.00,,,0.01,WUHU216DAVISVP2,2013-05-09 17:30:00,
2013-05-09 13:35:00,76.0,56.7,30.04,WNW,287,6.0,10.0,51,0.00,,,0.01,WUHU216DAVISVP2,2013-05-09 17:35:00,
2013-05-09 13:40:00,76.0,57.2,30.04,WSW,256,6.0,9.0,52,0.00,,,0.01,WUHU216DAVISVP2,2013-05-09 17:40:00,
2013-05-09 13:45:00,76.2,55.7,30.04,West,266,5.0,9.0,49,0.00,,,0.01,WUHU216DAVISVP2,2013-05-09 17:45:00,
2013-05-09 13:50:00,75.9,56.6,30.03,WSW,253,4.0,8.0,51,0.00,,,0.01,WUHU216DAVISVP2,2013-05-09 17:50:00,
2013-05-09 13:55:00,75.9,54.9,30.04,West,267,5.0,8.0,48,0.00,,,0.01,WUHU216DAVISVP2,2013-05-09 17:55:00,
2013-05-09 14:00:00,75.8,55.3,30.03,ENE,77,1.0,8.0,49,0.00,,,0.01,WUHU216DAVISVP2,2013-05-09 18:00:00,
2013-05-09 14:05:00,75.9,57.1,30.04,WSW,250,2.0,8.0,52,0.00,,,0.01,WUHU216DAVISVP2,2013-05-09 18:05:00,
2013-05-09 14:10:00,76.2,57.4,30.03,West,260,6.0,8.0,52,0.00,,,0.01,WUHU216DAVISVP2,2013-05-09 18:10:00,
2013-05-09 14:15:00,76.2,56.3,30.03,NW,311,2.0,9.0,50,0.00,,,0.01,WUHU216DAVISVP2,2013-05-09 18:15:00,
2013-05-09 14:20:00,76.1,55.6,30.03,NW,313,2.0,9.0,49,0.00,,,0.01,WUHU216DAVISVP2,2013-05-09 18:20:00,
2013-05-09 14:25:00,76.4,57.6,30.03,WSW,256,2.0,8.0,52,0.00,,,0.01,WUHU216DAVISVP2,2013-05-09 18:25:00,
2013-05-09 14:30:00,77.5,57.9,30.03,SSW,207,2.0,8.0,51,0.00,,,0.01,WUHU216DAVISVP2,2013-05-09 18:30:00,
2013-05-09 14:35:00,77.0,56.9,30.03,SSW,198,4.0,11.0,50,0.00,,,0.01,WUHU216DAVISVP2,2013-05-09 18:35:00,
2013-05-09 14:40:00,76.4,56.4,30.03,SW,221,3.0,11.0,50,0.00,,,0.01,WUHU216DAVISVP2,2013-05-09 18:40:00,
2013-05-09 14:45:00,76.5,56.5,30.02,WSW,252,3.0,10.0,50,0.00,,,0.01,WUHU216DAVISVP2,2013-05-09 18:45:00,
2013-05-09 14:50:00,76.8,56.8,30.02,WNW,286,4.0,10.0,50,0.00,,,0.01,WUHU216DAVISVP2,2013-05-09 18:50:00,
2013-05-09 14:55:00,76.9,56.9,30.02,NE,53,2.0,8.0,50,0.00,,,0.01,WUHU216DAVISVP2,2013-05-09 18:55:00,
2013-05-09 15:00:00,77.3,57.9,30.02,SW,226,6.0,10.0,51,0.00,,,0.01,WUHU216DAVISVP2,2013-05-09 19:00:00,
2013-05-09 15:05:00,77.4,56.8,30.02,SSE,158,4.0,10.0,49,0.00,,,0.01,WUHU216DAVISVP2,2013-05-09 19:05:00,
2013-05-09 15:10:00,77.4,56.2,30.02,WSW,257,4.0,10.0,48,0.00,,,0.01,WUHU216DAVISVP2,2013-05-09 19:10:00,
2013-05-09 15:15:00,77.3,56.1,30.02,SW,228,7.0,10.0,48,0.00,,,0.01,WUHU216DAVISVP2,2013-05-09 19:15:00,
2013-05-09 15:20:00,76.6,56.1,30.02,West,272,1.0,10.0,49,0.00,,,0.01,WUHU216DAVISVP2,2013-05-09 19:20:00,
2013-05-09 15:25:00,76.7,57.9,30.02,SW,235,4.0,9.0,52,0.00,,,0.01,WUHU216DAVISVP2,2013-05-09 19:25:00,
2013-05-09 15:30:00,77.5,56.9,30.01,West,278,3.0,9.0,49,0.00,,,0.01,WUHU216DAVISVP2,2013-05-09 19:30:00,
2013-05-09 15:35:00,77.4,58.0,30.01,West,276,2.0,8.0,51,0.00,,,0.01,WUHU216DAVISVP2,2013-05-09 19:35:00,
2013-05-09 15:40:00,77.4,58.0,30.01,SW,214,3.0,6.0,51,0.00,,,0.01,WUHU216DAVISVP2,2013-05-09 19:40:00,
2013-05-09 15:45:00,77.6,57.0,30.01,WSW,242,2.0,6.0,49,0.00,,,0.01,WUHU216DAVISVP2,2013-05-09 19:45:00,
2013-05-09 15:50:00,77.5,57.5,30.01,WSW,255,2.0,6.0,50,0.00,,,0.01,WUHU216DAVISVP2,2013-05-09 19:50:00,
2013-05-09 15:55:00,77.4,56.8,30.00,WSW,257,2.0,5.0,49,0.00,,,0.01,WUHU216DAVISVP2,2013-05-09 19:55:00,
2013-05-09 16:00:00,77.9,58.3,30.00,WNW,286,3.0,5.0,51,0.00,,,0.01,WUHU216DAVISVP2,2013-05-09 20:00:00,
2013-05-09 16:05:00,78.2,58.1,30.00,SSW,200,1.0,7.0,50,0.00,,,0.01,WUHU216DAVISVP2,2013-05-09 20:05:00,
2013-05-09 16:10:00,78.0,56.2,30.00,SW,232,3.0,9.0,47,0.00,,,0.01,WUHU216DAVISVP2,2013-05-09 20:10:00,
2013-05-09 16:15:00,77.7,57.1,30.00,SSW,203,2.0,9.0,49,0.00,,,0.01,WUHU216DAVISVP2,2013-05-09 20:15:00,
2013-05-09 16:20:00,77.5,56.9,30.00,WSW,246,3.0,9.0,49,0.00,,,0.01,WUHU216DAVISVP2,2013-05-09 20:20:00,
2013-05-09 16:25:00,76.8,56.3,30.00,SW,233,3.0,9.0,49,0.00,,,0.01,WUHU216DAVISVP2,2013-05-09 20:25:00,
2013-05-09 16:30:00,75.8,58.0,30.00,SW,217,1.0,8.0,54,0.00,,,0.01,WUHU216DAVISVP2,2013-05-09 20:30:00,
2013-05-09 16:35:00,75.0,59.9,30.00,SSW,193,0.0,8.0,59,0.00,,,0.01,WUHU216DAVISVP2,2013-05-09 20:35:00,
2013-05-09 16:40:00,75.6,60.0,30.00,WSW,252,1.0,7.0,58,0.00,,,0.01,WUHU216DAVISVP2,2013-05-09 20:40:00,
2013-05-09 16:45:00,76.5,61.3,30.00,West,278,0.0,7.0,59,0.00,,,0.01,WUHU216DAVISVP2,2013-05-09 20:45:00,
2013-05-09 16:49:00,76.5,58.2,30.00,West,281,1.0,2.0,53,0.00,,,0.01,WUHU216DAVISVP2,2013-05-09 20:49:00,
2013-05-09 16:54:00,76.6,59.4,30.00,SW,224,0.0,2.0,55,0.00,,,0.01,WUHU216DAVISVP2,2013-05-09 20:54:00,
2013-05-09 16:59:00,76.6,59.9,29.99,SW,224,0.0,2.0,56,0.00,,,0.01,WUHU216DAVISVP2,2013-05-09 20:59:00,
2013-05-09 17:00:00,76.6,59.2,29.99,West,270,1.0,3.0,55,0.00,,,0.01,WUHU216DAVISVP2,2013-05-09 21:00:00,
2013-05-09 17:04:00,76.7,61.5,30.00,SW,224,0.0,2.0,59,0.00,,,0.01,WUHU216DAVISVP2,2013-05-09 21:04:00,
2013-05-09 17:09:00,76.9,58.6,29.99,SW,221,0.0,1.0,53,0.00,,,0.01,WUHU216DAVISVP2,2013-05-09 21:09:00,
2013-05-09 17:14:00,77.6,59.3,29.99,SSW,212,1.0,3.0,53,0.00,,,0.01,WUHU216DAVISVP2,2013-05-09 21:14:00,
2013-05-09 17:19:00,78.3,57.7,29.99,SW,215,0.0,3.0,49,0.00,,,0.01,WUHU216DAVISVP2,2013-05-09 21:19:00,
2013-05-09 17:24:00,79.0,59.3,29.99,SW,215,0.0,3.0,51,0.00,,,0.01,WUHU216DAVISVP2,2013-05-09 21:24:00,
2013-05-09 17:29:00,79.4,58.0,29.99,ESE,119,0.0,3.0,48,0.00,,,0.01,WUHU216DAVISVP2,2013-05-09 21:29:00,
2013-05-09 17:30:00,79.4,58.6,29.99,SW,225,0.0,3.0,49,0.00,,,0.01,WUHU216DAVISVP2,2013-05-09 21:30:00,
2013-05-09 17:34:00,78.5,57.7,30.00,WSW,239,1.0,2.0,49,0.00,,,0.01,WUHU216DAVISVP2,2013-05-09 21:34:00,
2013-05-09 17:39:00,77.5,57.9,29.99,West,269,0.0,2.0,51,0.00,,,0.01,WUHU216DAVISVP2,2013-05-09 21:39:00,
2013-05-09 17:44:00,77.4,57.9,29.99,SW,228,1.0,2.0,51,0.00,,,0.01,WUHU216DAVISVP2,2013-05-09 21:44:00,
2013-05-09 17:49:00,77.3,57.8,29.99,WSW,246,1.0,4.0,51,0.00,,,0.01,WUHU216DAVISVP2,2013-05-09 21:49:00,
2013-05-09 17:54:00,77.2,57.7,29.99,WSW,248,1.0,4.0,51,0.00,,,0.01,WUHU216DAVISVP2,2013-05-09 21:54:00,
2013-05-09 17:59:00,77.2,58.2,29.99,SW,226,3.0,4.0,52,0.00,,,0.01,WUHU216DAVISVP2,2013-05-09 21:59:00,
2013-05-09 18:00:00,77.2,58.2,29.99,WSW,248,1.0,4.0,52,0.00,,,0.01,WUHU216DAVISVP2,2013-05-09 22:00:00,
2013-05-09 18:04:00,77.3,58.3,29.99,WSW,252,1.0,5.0,52,0.00,,,0.01,WUHU216DAVISVP2,2013-05-09 22:04:00,
2013-05-09 18:09:00,77.9,57.8,29.99,WSW,245,2.0,5.0,50,0.00,,,0.01,WUHU216DAVISVP2,2013-05-09 22:09:00,
2013-05-09 18:14:00,78.4,57.7,29.99,SW,215,1.0,6.0,49,0.00,,,0.01,WUHU216DAVISVP2,2013-05-09 22:14:00,
2013-05-09 18:19:00,78.6,58.5,29.99,SW,231,3.0,6.0,50,0.00,,,0.01,WUHU216DAVISVP2,2013-05-09 22:19:00,
2013-05-09 18:24:00,78.9,58.8,29.99,SW,228,0.0,5.0,50,0.00,,,0.01,WUHU216DAVISVP2,2013-05-09 22:24:00,
2013-05-09 18:29:00,79.4,58.1,29.99,SSE,148,1.0,5.0,48,0.00,,,0.01,WUHU216DAVISVP2,2013-05-09 22:29:00,
2013-05-09 18:30:00,79.4,58.6,29.99,WSW,248,2.0,6.0,49,0.00,,,0.01,WUHU216DAVISVP2,2013-05-09 22:30:00,
2013-05-09 18:34:00,79.4,57.5,29.98,WSW,240,2.0,4.0,47,0.00,,,0.01,WUHU216DAVISVP2,2013-05-09 22:34:00,
2013-05-09 18:39:00,79.0,57.1,29.98,SW,219,3.0,8.0,47,0.00,,,0.01,WUHU216DAVISVP2,2013-05-09 22:39:00,
2013-05-09 18:44:00,78.8,57.5,29.98,WSW,250,0.0,8.0,48,0.00,,,0.01,WUHU216DAVISVP2,2013-05-09 22:44:00,
2013-05-09 18:49:00,78.8,57.4,29.98,WSW,255,2.0,7.0,48,0.00,,,0.01,WUHU216DAVISVP2,2013-05-09 22:49:00,
2013-05-09 18:54:00,78.5,56.6,29.98,WSW,257,6.0,7.0,47,0.00,,,0.01,WUHU216DAVISVP2,2013-05-09 22:54:00,
2013-05-09 18:59:00,78.4,56.6,29.99,SW,233,2.0,8.0,47,0.00,,,0.01,WUHU216DAVISVP2,2013-05-09 22:59:00,
2013-05-09 19:00:00,78.4,55.3,29.99,WSW,248,2.0,8.0,45,0.00,,,0.01,WUHU216DAVISVP2,2013-05-09 23:00:00,
2013-05-09 19:04:00,78.5,56.0,29.99,SW,215,3.0,8.0,46,0.00,,,0.01,WUHU216DAVISVP2,2013-05-09 23:04:00,
2013-05-09 19:09:00,78.5,56.0,29.98,WSW,239,1.0,7.0,46,0.00,,,0.01,WUHU216DAVISVP2,2013-05-09 23:09:00,
2013-05-09 19:14:00,78.5,56.0,29.98,SW,235,0.0,7.0,46,0.00,,,0.01,WUHU216DAVISVP2,2013-05-09 23:14:00,
2013-05-09 19:19:00,79.0,56.5,29.98,SW,229,0.0,4.0,46,0.00,,,0.01,WUHU216DAVISVP2,2013-05-09 23:19:00,
2013-05-09 19:24:00,79.0,57.7,29.99,SW,222,0.0,4.0,48,0.00,,,0.01,WUHU216DAVISVP2,2013-05-09 23:24:00,
2013-05-09 19:29:00,78.7,58.0,29.99,South,187,0.0,2.0,49,0.00,,,0.01,WUHU216DAVISVP2,2013-05-09 23:29:00,
2013-05-09 19:30:00,78.7,58.5,29.99,WSW,248,1.0,5.0,50,0.00,,,0.01,WUHU216DAVISVP2,2013-05-09 23:30:00,
2013-05-09 19:34:00,78.3,58.2,29.99,South,188,0.0,1.0,50,0.00,,,0.01,WUHU216DAVISVP2,2013-05-09 23:34:00,
2013-05-09 19:39:00,77.6,58.7,29.99,South,187,0.0,1.0,52,0.00,,,0.01,WUHU216DAVISVP2,2013-05-09 23:39:00,
2013-05-09 19:44:00,76.8,58.5,29.99,South,187,0.0,1.0,53,0.00,,,0.01,WUHU216DAVISVP2,2013-05-09 23:44:00,
2013-05-09 19:49:00,76.4,58.0,29.99,South,187,0.0,1.0,53,0.00,,,0.01,WUHU216DAVISVP2,2013-05-09 23:49:00,
2013-05-09 19:54:00,75.6,57.8,29.99,SW,224,0.0,1.0,54,0.00,,,0.01,WUHU216DAVISVP2,2013-05-09 23:54:00,
2013-05-09 19:59:00,74.8,57.0,30.00,SW,224,0.0,1.0,54,0.00,,,0.01,WUHU216DAVISVP2,2013-05-09 23:59:00,
2013-05-09 20:00:00,75.0,57.2,30.00,SW,225,0.0,1.0,54,0.00,,,0.01,WUHU216DAVISVP2,2013-05-10 00:00:00,
2013-05-09 20:04:00,74.1,57.4,30.00,SW,224,0.0,1.0,56,0.00,,,0.01,WUHU216DAVISVP2,2013-05-10 00:04:00,
2013-05-09 20:09:00,73.4,57.4,30.00,SW,224,0.0,1.0,57,0.00,,,0.01,WUHU216DAVISVP2,2013-05-10 00:09:00,
2013-05-09 20:14:00,72.9,56.9,30.00,SSW,208,0.0,1.0,57,0.00,,,0.01,WUHU216DAVISVP2,2013-05-10 00:14:00,
2013-05-09 20:19:00,72.5,56.4,30.00,SSW,208,0.0,1.0,57,0.00,,,0.01,WUHU216DAVISVP2,2013-05-10 00:19:00,
2013-05-09 20:24:00,72.1,56.7,30.00,SSW,208,0.0,1.0,58,0.00,,,0.01,WUHU216DAVISVP2,2013-05-10 00:24:00,
2013-05-09 20:29:00,71.6,56.7,30.00,SSW,208,0.0,1.0,59,0.00,,,0.01,WUHU216DAVISVP2,2013-05-10 00:29:00,
2013-05-09 20:30:00,71.7,57.1,30.00,SSW,203,0.0,1.0,60,0.00,,,0.01,WUHU216DAVISVP2,2013-05-10 00:30:00,
2013-05-09 20:34:00,71.0,56.6,30.00,SSW,208,0.0,1.0,60,0.00,,,0.01,WUHU216DAVISVP2,2013-05-10 00:34:00,
2013-05-09 20:39:00,70.3,57.3,30.01,SSW,208,0.0,1.0,63,0.00,,,0.01,WUHU216DAVISVP2,2013-05-10 00:39:00,
2013-05-09 20:44:00,69.7,57.2,30.01,SSW,208,0.0,1.0,64,0.00,,,0.01,WUHU216DAVISVP2,2013-05-10 00:44:00,
2013-05-09 20:49:00,68.9,57.3,30.01,SSW,208,0.0,0.0,66,0.00,,,0.01,WUHU216DAVISVP2,2013-05-10 00:49:00,
2013-05-09 20:54:00,68.1,56.9,30.01,SSW,208,0.0,0.0,67,0.00,,,0.01,WUHU216DAVISVP2,2013-05-10 00:54:00,
2013-05-09 20:59:00,67.5,57.1,30.02,SSW,208,0.0,0.0,69,0.00,,,0.01,WUHU216DAVISVP2,2013-05-10 00:59:00,
2013-05-09 21:00:00,67.5,56.6,30.01,North,0,0.0,0.0,68,0.00,,,0.01,WUHU216DAVISVP2,2013-05-10 01:00:00,
2013-05-09 21:04:00,66.9,57.3,30.02,SSW,208,0.0,0.0,71,0.00,,,0.01,WUHU216DAVISVP2,2013-05-10 01:04:00,
2013-05-09 21:09:00,66.5,57.3,30.02,SSW,209,0.0,1.0,72,0.00,,,0.01,WUHU216DAVISVP2,2013-05-10 01:09:00,
2013-05-09 21:14:00,66.3,58.3,30.02,SSW,209,0.0,1.0,75,0.00,,,0.01,WUHU216DAVISVP2,2013-05-10 01:14:00,
2013-05-09 21:19:00,66.1,58.1,30.02,SSE,153,0.0,1.0,75,0.00,,,0.01,WUHU216DAVISVP2,2013-05-10 01:19:00,
2013-05-09 21:24:00,66.0,58.0,30.02,SSE,153,0.0,1.0,75,0.00,,,0.01,WUHU216DAVISVP2,2013-05-10 01:24:00,
2013-05-09 21:29:00,65.8,58.5,30.02,SSE,154,0.0,1.0,77,0.00,,,0.01,WUHU216DAVISVP2,2013-05-10 01:29:00,
2013-05-09 21:30:00,65.8,58.0,30.02,SE,135,0.0,1.0,76,0.00,,,0.01,WUHU216DAVISVP2,2013-05-10 01:30:00,
2013-05-09 21:34:00,65.5,58.5,30.02,SSE,153,0.0,1.0,78,0.00,,,0.01,WUHU216DAVISVP2,2013-05-10 01:34:00,
2013-05-09 21:39:00,65.2,58.3,30.03,SSE,154,0.0,0.0,78,0.00,,,0.01,WUHU216DAVISVP2,2013-05-10 01:39:00,
2013-05-09 21:44:00,64.8,57.5,30.03,SSE,153,0.0,0.0,77,0.00,,,0.01,WUHU216DAVISVP2,2013-05-10 01:44:00,
2013-05-09 21:49:00,64.6,57.3,30.03,SSE,154,0.0,0.0,77,0.00,,,0.01,WUHU216DAVISVP2,2013-05-10 01:49:00,
2013-05-09 21:54:00,64.8,57.5,30.03,SSE,155,0.0,0.0,77,0.00,,,0.01,WUHU216DAVISVP2,2013-05-10 01:54:00,
2013-05-09 21:59:00,65.0,57.7,30.03,SSE,153,0.0,0.0,77,0.00,,,0.01,WUHU216DAVISVP2,2013-05-10 01:59:00,
2013-05-09 22:00:00,65.0,57.6,30.03,North,0,0.0,0.0,77,0.00,,,0.01,WUHU216DAVISVP2,2013-05-10 02:00:00,
2013-05-09 22:04:00,65.1,57.8,30.04,SSE,155,0.0,0.0,77,0.00,,,0.01,WUHU216DAVISVP2,2013-05-10 02:04:00,
2013-05-09 22:09:00,65.1,57.8,30.04,SSE,155,0.0,1.0,77,0.00,,,0.01,WUHU216DAVISVP2,2013-05-10 02:09:00,
2013-05-09 22:14:00,65.2,57.9,30.03,SSE,155,0.0,1.0,77,0.00,,,0.01,WUHU216DAVISVP2,2013-05-10 02:14:00,
2013-05-09 22:19:00,65.0,57.7,30.03,SSE,154,0.0,1.0,77,0.00,,,0.01,WUHU216DAVISVP2,2013-05-10 02:19:00,
2013-05-09 22:24:00,64.9,58.0,30.04,SSE,153,0.0,1.0,78,0.00,,,0.01,WUHU216DAVISVP2,2013-05-10 02:24:00,
2013-05-09 22:29:00,64.6,58.0,30.04,SSE,155,0.0,1.0,79,0.00,,,0.01,WUHU216DAVISVP2,2013-05-10 02:29:00,
2013-05-09 22:30:00,64.7,58.0,30.04,North,0,0.0,0.0,79,0.00,,,0.01,WUHU216DAVISVP2,2013-05-10 02:30:00,
2013-05-09 22:34:00,64.5,58.3,30.03,SSE,155,0.0,1.0,80,0.00,,,0.01,WUHU216DAVISVP2,2013-05-10 02:34:00,
2013-05-09 22:39:00,64.5,58.3,30.04,SSE,155,0.0,1.0,80,0.00,,,0.01,WUHU216DAVISVP2,2013-05-10 02:39:00,
2013-05-09 22:44:00,64.5,58.3,30.04,SW,228,0.0,2.0,80,0.00,,,0.01,WUHU216DAVISVP2,2013-05-10 02:44:00,
2013-05-09 22:49:00,64.5,58.3,30.04,SW,228,0.0,2.0,80,0.00,,,0.01,WUHU216DAVISVP2,2013-05-10 02:49:00,
2013-05-09 22:54:00,64.7,58.4,30.04,SW,235,0.0,1.0,80,0.00,,,0.01,WUHU216DAVISVP2,2013-05-10 02:54:00,
2013-05-09 22:59:00,64.9,58.6,30.04,WSW,243,1.0,2.0,80,0.00,,,0.01,WUHU216DAVISVP2,2013-05-10 02:59:00,
2013-05-09 23:00:00,64.8,58.5,30.04,WSW,248,0.0,2.0,80,0.00,,,0.01,WUHU216DAVISVP2,2013-05-10 03:00:00,
2013-05-09 23:04:00,64.7,58.5,30.04,West,260,1.0,2.0,80,0.00,,,0.01,WUHU216DAVISVP2,2013-05-10 03:04:00,
2013-05-09 23:09:00,64.6,58.7,30.04,WSW,249,1.0,2.0,81,0.00,,,0.01,WUHU216DAVISVP2,2013-05-10 03:09:00,
2013-05-09 23:14:00,64.4,58.5,30.04,WSW,245,1.0,2.0,81,0.00,,,0.01,WUHU216DAVISVP2,2013-05-10 03:14:00,
2013-05-09 23:19:00,64.2,58.3,30.04,WSW,247,0.0,1.0,81,0.00,,,0.01,WUHU216DAVISVP2,2013-05-10 03:19:00,
2013-05-09 23:24:00,63.9,58.0,30.04,WSW,242,0.0,2.0,81,0.00,,,0.01,WUHU216DAVISVP2,2013-05-10 03:24:00,
2013-05-09 23:29:00,63.5,58.0,30.04,WSW,242,0.0,2.0,82,0.00,,,0.01,WUHU216DAVISVP2,2013-05-10 03:29:00,
2013-05-09 23:30:00,63.5,57.9,30.04,WSW,248,0.0,2.0,82,0.00,,,0.01,WUHU216DAVISVP2,2013-05-10 03:30:00,
2013-05-09 23:34:00,63.2,58.0,30.04,WSW,242,0.0,2.0,83,0.00,,,0.01,WUHU216DAVISVP2,2013-05-10 03:34:00,
2013-05-09 23:39:00,63.0,57.8,30.04,WSW,242,0.0,2.0,83,0.00,,,0.01,WUHU216DAVISVP2,2013-05-10 03:39:00,
2013-05-09 23:44:00,63.0,57.8,30.04,WSW,238,0.0,1.0,83,0.00,,,0.01,WUHU216DAVISVP2,2013-05-10 03:44:00,
2013-05-09 23:49:00,62.9,57.7,30.04,WSW,238,0.0,1.0,83,0.00,,,0.01,WUHU216DAVISVP2,2013-05-10 03:49:00,
2013-05-09 23:54:00,62.9,58.0,30.04,WSW,239,1.0,2.0,84,0.00,,,0.01,WUHU216DAVISVP2,2013-05-10 03:54:00,
2013-05-09 23:59:00,62.9,58.0,30.04,WSW,239,0.0,2.0,84,0.00,,,0.01,WUHU216DAVISVP2,2013-05-10 03:59:00,